Frugy — FVQF — position and weather

sailwx.info

Track history (hours):
 
Tides and Currents Weather Stations Pressure Air Temp Water Temp Dewpoint Dewpoint Depression Visibility Wind Speed Wind Dir Waves Ship Positions

Frugy

Last reported at 2017-Nov-24 07:23 UTC. Time now 2017-Nov-24 07:42 UTC.
Position N 47°37' W 003°54'.

Length 16 m.

Type: Fishing. MMSI: 228218000.

Date/timePositionNaut miles runAvg speedWind from/ knotsBaromVisibWave heightAir tempDewpointWater temp
2017-Nov-24 07:23N 47°37' W 003°54'1 3.5
2017-Nov-24 06:59N 47°38' W 003°52'3 2.8
2017-Nov-24 05:56N 47°41' W 003°52'3 5.8
2017-Nov-24 05:21N 47°43' W 003°55'3 7.9
2017-Nov-24 05:00N 47°45' W 003°58'4 8.0
2017-Nov-24 04:30N 47°48' W 004°03'4 7.9
2017-Nov-24 04:00N 47°50' W 004°08'2 0.1
2017-Nov-23 09:41N 47°50' W 004°10'0 0.0
2017-Nov-23 09:28N 47°50' W 004°10'1 0.0
2017-Nov-22 19:48N 47°50' W 004°09'  
2017-Nov-17 23:16N 47°50' W 004°11'1 4.7
2017-Nov-17 23:00N 47°50' W 004°09'4 7.9
2017-Nov-17 22:29N 47°49' W 004°03'5 8.0
2017-Nov-17 21:48N 47°52' W 003°55'1 0.4
2017-Nov-17 20:09N 47°51' W 003°56'2 8.2
2017-Nov-17 19:52N 47°49' W 003°54'3 8.7
2017-Nov-17 19:30N 47°46' W 003°52'5 8.7
2017-Nov-17 18:58N 47°43' W 003°47'3 7.2
2017-Nov-17 18:30N 47°40' W 003°44'7 2.1
2017-Nov-17 15:02N 47°34' W 003°38'0 3.7
2017-Nov-17 15:00N 47°34' W 003°39'2 3.6
2017-Nov-17 14:30N 47°35' W 003°41'5 1.6
2017-Nov-17 11:12N 47°32' W 003°34'1 3.6
2017-Nov-17 11:00N 47°31' W 003°33'7 1.0
2017-Nov-17 04:12N 47°37' W 003°37'4 6.8
2017-Nov-17 03:33N 47°40' W 003°42'2 7.0
2017-Nov-17 03:14N 47°41' W 003°45'3 7.1
2017-Nov-17 02:49N 47°43' W 003°48'3 7.0
2017-Nov-17 02:23N 47°45' W 003°51'3 6.9
2017-Nov-17 01:58N 47°48' W 003°54'4 7.3
2017-Nov-17 01:26N 47°51' W 003°56'1 0.5
2017-Nov-17 00:21N 47°52' W 003°55'3 8.0
2017-Nov-16 23:59N 47°49' W 003°55'4 8.1
2017-Nov-16 23:28N 47°45' W 003°52'16 1.2
2017-Nov-16 10:19N 47°34' W 003°35'1 3.5
2017-Nov-16 10:00N 47°35' W 003°35'2 0.5
2017-Nov-16 06:51N 47°37' W 003°34'1 1.5
2017-Nov-16 05:56N 47°35' W 003°35'8 8.4
2017-Nov-16 05:00N 47°41' W 003°44'5 8.5
2017-Nov-16 04:22N 47°44' W 003°49'3 8.5
2017-Nov-16 04:00N 47°47' W 003°53'5 8.5
2017-Nov-16 03:26N 47°51' W 003°56'2 3.5
2017-Nov-16 02:57N 47°53' W 003°55'2 3.2
2017-Nov-16 02:27N 47°51' W 003°56'2 4.0
2017-Nov-16 01:58N 47°49' W 003°56'2 4.1
2017-Nov-16 01:28N 47°47' W 003°55'2 3.8
2017-Nov-16 00:58N 47°45' W 003°56'2 3.7
2017-Nov-16 00:29N 47°44' W 003°55'2 4.1
2017-Nov-16 00:00N 47°43' W 003°52'1 2.5
2017-Nov-15 23:30N 47°42' W 003°51'0 0.8
2017-Nov-15 22:56N 47°42' W 003°51'0 0.9
2017-Nov-15 22:30N 47°41' W 003°50'2 2.8
2017-Nov-15 21:51N 47°40' W 003°48'1 3.5
2017-Nov-15 21:30N 47°39' W 003°49'2 3.5
2017-Nov-15 21:00N 47°38' W 003°46'2 3.6
2017-Nov-15 20:30N 47°38' W 003°44'2 3.0
2017-Nov-15 20:00N 47°39' W 003°42'1 2.6
2017-Nov-15 19:30N 47°38' W 003°43'0 0.9
2017-Nov-15 19:00N 47°38' W 003°42'1 2.5
2017-Nov-15 18:30N 47°38' W 003°44'2 3.8
2017-Nov-15 18:01N 47°37' W 003°42'5 2.9
2017-Nov-15 16:18N 47°36' W 003°34'1 3.6
2017-Nov-15 16:00N 47°35' W 003°36'1 2.6
2017-Nov-15 15:29N 47°35' W 003°38'1 2.0
2017-Nov-15 14:48N 47°37' W 003°38'1 3.1
2017-Nov-15 14:30N 47°36' W 003°38'1 2.6
2017-Nov-15 14:01N 47°36' W 003°40'1 2.2
2017-Nov-15 13:24N 47°36' W 003°38'2 2.2
2017-Nov-15 12:33N 47°34' W 003°38'0 3.8
2017-Nov-15 12:30N 47°34' W 003°38'1 2.9
2017-Nov-15 12:00N 47°35' W 003°39'2 3.3
2017-Nov-15 11:30N 47°35' W 003°37'1 0.6
2017-Nov-15 10:34N 47°35' W 003°37'0 3.4
2017-Nov-15 10:30N 47°34' W 003°37'1 2.7
2017-Nov-15 10:00N 47°33' W 003°38'1 0.8
2017-Nov-15 08:25N 47°34' W 003°40'1 3.6
2017-Nov-15 08:00N 47°35' W 003°40'2 1.2
2017-Nov-15 06:18N 47°37' W 003°42'2 5.8
2017-Nov-15 06:00N 47°38' W 003°44'5 6.3
2017-Nov-15 05:12N 47°42' W 003°48'2 6.4
2017-Nov-15 04:50N 47°44' W 003°50'3 6.3
2017-Nov-15 04:25N 47°46' W 003°52'3 6.4
2017-Nov-15 04:00N 47°48' W 003°54'4 2.8
2017-Nov-15 02:43N 47°52' W 003°55'2 6.0
2017-Nov-15 02:26N 47°50' W 003°55'2 4.7
2017-Nov-15 02:00N 47°48' W 003°54'2 4.7
2017-Nov-15 01:29N 47°46' W 003°52'2 4.8
2017-Nov-15 01:00N 47°44' W 003°50'2 4.8
2017-Nov-15 00:30N 47°42' W 003°48'2 4.9
2017-Nov-15 00:00N 47°41' W 003°46'3 5.0
2017-Nov-14 23:31N 47°39' W 003°44'1 2.8
2017-Nov-14 23:00N 47°37' W 003°42'2 3.5
2017-Nov-14 22:30N 47°36' W 003°41'2 3.3
2017-Nov-14 22:00N 47°34' W 003°40'1 3.0
2017-Nov-14 21:30N 47°33' W 003°39'2 3.3
2017-Nov-14 21:00N 47°32' W 003°37'2 3.4
2017-Nov-14 20:30N 47°32' W 003°35'2 3.2
2017-Nov-14 20:00N 47°31' W 003°32'2 2.9
2017-Nov-14 19:11N 47°34' W 003°33'1 3.7
2017-Nov-14 19:01N 47°34' W 003°34'3 1.6
2017-Nov-14 16:57N 47°36' W 003°38'1 3.3
2017-Nov-14 16:30N 47°35' W 003°36'0 0.4
2017-Nov-14 15:50N 47°35' W 003°37'1 2.9
2017-Nov-14 15:30N 47°35' W 003°38'0 0.2
2017-Nov-14 14:14N 47°35' W 003°38'1 3.3
2017-Nov-14 14:00N 47°35' W 003°39'2 3.6
2017-Nov-14 13:30N 47°36' W 003°42'1 1.3
2017-Nov-14 12:50N 47°36' W 003°41'1 3.1
2017-Nov-14 12:30N 47°35' W 003°41'1 2.2
2017-Nov-14 12:00N 47°35' W 003°40'1 0.6
2017-Nov-14 10:53N 47°35' W 003°39'1 3.2
2017-Nov-14 10:30N 47°35' W 003°40'1 1.5
2017-Nov-14 09:47N 47°33' W 003°40'1 3.7
2017-Nov-14 09:30N 47°35' W 003°40'1 0.6
2017-Nov-14 07:57N 47°34' W 003°39'1 2.6
2017-Nov-14 07:30N 47°36' W 003°39'  
Track history (hours):
 
Tides and Currents Weather Stations Pressure Air Temp Water Temp Dewpoint Dewpoint Depression Visibility Wind Speed Wind Dir Waves Ship Positions

Frugy

Last reported at 2017-Nov-24 07:23 UTC. Time now 2017-Nov-24 07:42 UTC.
Position N 47°37' W 003°54'.

Length 16 m.

Type: Fishing. MMSI: 228218000.

Date/timePositionNaut miles runAvg speedWind from/ knotsBaromVisibWave heightAir tempDewpointWater temp
2017-Nov-24 07:23N 47°37' W 003°54'1 3.5
2017-Nov-24 06:59N 47°38' W 003°52'3 2.8
2017-Nov-24 05:56N 47°41' W 003°52'3 5.8
2017-Nov-24 05:21N 47°43' W 003°55'3 7.9
2017-Nov-24 05:00N 47°45' W 003°58'4 8.0
2017-Nov-24 04:30N 47°48' W 004°03'4 7.9
2017-Nov-24 04:00N 47°50' W 004°08'2 0.1
2017-Nov-23 09:41N 47°50' W 004°10'0 0.0
2017-Nov-23 09:28N 47°50' W 004°10'1 0.0
2017-Nov-22 19:48N 47°50' W 004°09'  
2017-Nov-17 23:16N 47°50' W 004°11'1 4.7
2017-Nov-17 23:00N 47°50' W 004°09'4 7.9
2017-Nov-17 22:29N 47°49' W 004°03'5 8.0
2017-Nov-17 21:48N 47°52' W 003°55'1 0.4
2017-Nov-17 20:09N 47°51' W 003°56'2 8.2
2017-Nov-17 19:52N 47°49' W 003°54'3 8.7
2017-Nov-17 19:30N 47°46' W 003°52'5 8.7
2017-Nov-17 18:58N 47°43' W 003°47'3 7.2
2017-Nov-17 18:30N 47°40' W 003°44'7 2.1
2017-Nov-17 15:02N 47°34' W 003°38'0 3.7
2017-Nov-17 15:00N 47°34' W 003°39'2 3.6
2017-Nov-17 14:30N 47°35' W 003°41'5 1.6
2017-Nov-17 11:12N 47°32' W 003°34'1 3.6
2017-Nov-17 11:00N 47°31' W 003°33'7 1.0
2017-Nov-17 04:12N 47°37' W 003°37'4 6.8
2017-Nov-17 03:33N 47°40' W 003°42'2 7.0
2017-Nov-17 03:14N 47°41' W 003°45'3 7.1
2017-Nov-17 02:49N 47°43' W 003°48'3 7.0
2017-Nov-17 02:23N 47°45' W 003°51'3 6.9
2017-Nov-17 01:58N 47°48' W 003°54'4 7.3
2017-Nov-17 01:26N 47°51' W 003°56'1 0.5
2017-Nov-17 00:21N 47°52' W 003°55'3 8.0
2017-Nov-16 23:59N 47°49' W 003°55'4 8.1
2017-Nov-16 23:28N 47°45' W 003°52'16 1.2
2017-Nov-16 10:19N 47°34' W 003°35'1 3.5
2017-Nov-16 10:00N 47°35' W 003°35'2 0.5
2017-Nov-16 06:51N 47°37' W 003°34'1 1.5
2017-Nov-16 05:56N 47°35' W 003°35'8 8.4
2017-Nov-16 05:00N 47°41' W 003°44'5 8.5
2017-Nov-16 04:22N 47°44' W 003°49'3 8.5
2017-Nov-16 04:00N 47°47' W 003°53'5 8.5
2017-Nov-16 03:26N 47°51' W 003°56'2 3.5
2017-Nov-16 02:57N 47°53' W 003°55'2 3.2
2017-Nov-16 02:27N 47°51' W 003°56'2 4.0
2017-Nov-16 01:58N 47°49' W 003°56'2 4.1
2017-Nov-16 01:28N 47°47' W 003°55'2 3.8
2017-Nov-16 00:58N 47°45' W 003°56'2 3.7
2017-Nov-16 00:29N 47°44' W 003°55'2 4.1
2017-Nov-16 00:00N 47°43' W 003°52'1 2.5
2017-Nov-15 23:30N 47°42' W 003°51'0 0.8
2017-Nov-15 22:56N 47°42' W 003°51'0 0.9
2017-Nov-15 22:30N 47°41' W 003°50'2 2.8
2017-Nov-15 21:51N 47°40' W 003°48'1 3.5
2017-Nov-15 21:30N 47°39' W 003°49'2 3.5
2017-Nov-15 21:00N 47°38' W 003°46'2 3.6
2017-Nov-15 20:30N 47°38' W 003°44'2 3.0
2017-Nov-15 20:00N 47°39' W 003°42'1 2.6
2017-Nov-15 19:30N 47°38' W 003°43'0 0.9
2017-Nov-15 19:00N 47°38' W 003°42'1 2.5
2017-Nov-15 18:30N 47°38' W 003°44'2 3.8
2017-Nov-15 18:01N 47°37' W 003°42'5 2.9
2017-Nov-15 16:18N 47°36' W 003°34'1 3.6
2017-Nov-15 16:00N 47°35' W 003°36'1 2.6
2017-Nov-15 15:29N 47°35' W 003°38'1 2.0
2017-Nov-15 14:48N 47°37' W 003°38'1 3.1
2017-Nov-15 14:30N 47°36' W 003°38'1 2.6
2017-Nov-15 14:01N 47°36' W 003°40'1 2.2
2017-Nov-15 13:24N 47°36' W 003°38'2 2.2
2017-Nov-15 12:33N 47°34' W 003°38'0 3.8
2017-Nov-15 12:30N 47°34' W 003°38'1 2.9
2017-Nov-15 12:00N 47°35' W 003°39'2 3.3
2017-Nov-15 11:30N 47°35' W 003°37'1 0.6
2017-Nov-15 10:34N 47°35' W 003°37'0 3.4
2017-Nov-15 10:30N 47°34' W 003°37'1 2.7
2017-Nov-15 10:00N 47°33' W 003°38'1 0.8
2017-Nov-15 08:25N 47°34' W 003°40'1 3.6
2017-Nov-15 08:00N 47°35' W 003°40'2 1.2
2017-Nov-15 06:18N 47°37' W 003°42'2 5.8
2017-Nov-15 06:00N 47°38' W 003°44'5 6.3
2017-Nov-15 05:12N 47°42' W 003°48'2 6.4
2017-Nov-15 04:50N 47°44' W 003°50'3 6.3
2017-Nov-15 04:25N 47°46' W 003°52'3 6.4
2017-Nov-15 04:00N 47°48' W 003°54'4 2.8
2017-Nov-15 02:43N 47°52' W 003°55'2 6.0
2017-Nov-15 02:26N 47°50' W 003°55'2 4.7
2017-Nov-15 02:00N 47°48' W 003°54'2 4.7
2017-Nov-15 01:29N 47°46' W 003°52'2 4.8
2017-Nov-15 01:00N 47°44' W 003°50'2 4.8
2017-Nov-15 00:30N 47°42' W 003°48'2 4.9
2017-Nov-15 00:00N 47°41' W 003°46'3 5.0
2017-Nov-14 23:31N 47°39' W 003°44'1 2.8
2017-Nov-14 23:00N 47°37' W 003°42'2 3.5
2017-Nov-14 22:30N 47°36' W 003°41'2 3.3
2017-Nov-14 22:00N 47°34' W 003°40'1 3.0
2017-Nov-14 21:30N 47°33' W 003°39'2 3.3
2017-Nov-14 21:00N 47°32' W 003°37'2 3.4
2017-Nov-14 20:30N 47°32' W 003°35'2 3.2
2017-Nov-14 20:00N 47°31' W 003°32'2 2.9
2017-Nov-14 19:11N 47°34' W 003°33'1 3.7
2017-Nov-14 19:01N 47°34' W 003°34'3 1.6
2017-Nov-14 16:57N 47°36' W 003°38'1 3.3
2017-Nov-14 16:30N 47°35' W 003°36'0 0.4
2017-Nov-14 15:50N 47°35' W 003°37'1 2.9
2017-Nov-14 15:30N 47°35' W 003°38'0 0.2
2017-Nov-14 14:14N 47°35' W 003°38'1 3.3
2017-Nov-14 14:00N 47°35' W 003°39'2 3.6
2017-Nov-14 13:30N 47°36' W 003°42'1 1.3
2017-Nov-14 12:50N 47°36' W 003°41'1 3.1
2017-Nov-14 12:30N 47°35' W 003°41'1 2.2
2017-Nov-14 12:00N 47°35' W 003°40'1 0.6
2017-Nov-14 10:53N 47°35' W 003°39'1 3.2
2017-Nov-14 10:30N 47°35' W 003°40'1 1.5
2017-Nov-14 09:47N 47°33' W 003°40'1 3.7
2017-Nov-14 09:30N 47°35' W 003°40'1 0.6
2017-Nov-14 07:57N 47°34' W 003°39'1 2.6
2017-Nov-14 07:30N 47°36' W 003°39'  

Dump ship's entire track history